sensor_id;sensor_type;location;lat;lon;timestamp;P1;durP1;ratioP1;P2;durP2;ratioP2
20365;SDS011;10341;49.894;8.822;2023-05-07T00:02:51;3.70;;;1.98;;
20365;SDS011;10341;49.894;8.822;2023-05-07T00:08:11;2.77;;;1.83;;
20365;SDS011;10341;49.894;8.822;2023-05-07T00:13:30;3.15;;;2.40;;
20365;SDS011;10341;49.894;8.822;2023-05-07T00:18:54;5.20;;;2.33;;
20365;SDS011;10341;49.894;8.822;2023-05-07T00:24:13;2.78;;;1.70;;
20365;SDS011;10341;49.894;8.822;2023-05-07T00:29:32;3.70;;;2.30;;
20365;SDS011;10341;49.894;8.822;2023-05-07T00:34:51;4.95;;;3.10;;
20365;SDS011;10341;49.894;8.822;2023-05-07T00:40:11;3.70;;;2.47;;
20365;SDS011;10341;49.894;8.822;2023-05-07T00:45:30;3.45;;;2.75;;
20365;SDS011;10341;49.894;8.822;2023-05-07T00:50:50;3.08;;;2.47;;
20365;SDS011;10341;49.894;8.822;2023-05-07T00:56:09;3.70;;;2.50;;
20365;SDS011;10341;49.894;8.822;2023-05-07T01:01:30;3.03;;;2.50;;
20365;SDS011;10341;49.894;8.822;2023-05-07T01:06:50;4.90;;;3.13;;
20365;SDS011;10341;49.894;8.822;2023-05-07T01:12:11;2.63;;;2.35;;
20365;SDS011;10341;49.894;8.822;2023-05-07T01:23:01;4.00;;;2.67;;
20365;SDS011;10341;49.894;8.822;2023-05-07T01:28:23;3.70;;;3.10;;
20365;SDS011;10341;49.894;8.822;2023-05-07T01:39:03;3.43;;;3.00;;
20365;SDS011;10341;49.894;8.822;2023-05-07T01:44:25;4.78;;;2.83;;
20365;SDS011;10341;49.894;8.822;2023-05-07T01:49:45;3.38;;;2.70;;
20365;SDS011;10341;49.894;8.822;2023-05-07T01:55:05;3.50;;;3.00;;
20365;SDS011;10341;49.894;8.822;2023-05-07T02:00:25;3.28;;;2.60;;
20365;SDS011;10341;49.894;8.822;2023-05-07T02:05:45;3.22;;;2.70;;
20365;SDS011;10341;49.894;8.822;2023-05-07T02:11:25;6.93;;;3.15;;
20365;SDS011;10341;49.894;8.822;2023-05-07T02:22:06;4.38;;;3.00;;
20365;SDS011;10341;49.894;8.822;2023-05-07T02:27:26;3.80;;;3.08;;
20365;SDS011;10341;49.894;8.822;2023-05-07T02:32:45;2.40;;;2.20;;
20365;SDS011;10341;49.894;8.822;2023-05-07T02:38:04;3.45;;;2.85;;
20365;SDS011;10341;49.894;8.822;2023-05-07T02:43:25;4.78;;;3.25;;
20365;SDS011;10341;49.894;8.822;2023-05-07T02:48:45;4.03;;;2.53;;
20365;SDS011;10341;49.894;8.822;2023-05-07T02:54:04;3.28;;;2.88;;
20365;SDS011;10341;49.894;8.822;2023-05-07T02:59:25;2.75;;;2.45;;
20365;SDS011;10341;49.894;8.822;2023-05-07T03:04:45;4.07;;;2.75;;
20365;SDS011;10341;49.894;8.822;2023-05-07T03:10:05;4.05;;;2.80;;
20365;SDS011;10341;49.894;8.822;2023-05-07T03:15:25;4.65;;;3.00;;
20365;SDS011;10341;49.894;8.822;2023-05-07T03:20:45;2.85;;;2.65;;
20365;SDS011;10341;49.894;8.822;2023-05-07T03:26:05;4.10;;;2.53;;
20365;SDS011;10341;49.894;8.822;2023-05-07T03:36:45;5.90;;;3.33;;
20365;SDS011;10341;49.894;8.822;2023-05-07T03:42:05;4.18;;;2.88;;
20365;SDS011;10341;49.894;8.822;2023-05-07T03:47:26;4.13;;;3.03;;
20365;SDS011;10341;49.894;8.822;2023-05-07T03:52:45;5.30;;;3.17;;
20365;SDS011;10341;49.894;8.822;2023-05-07T03:58:07;3.30;;;2.83;;
20365;SDS011;10341;49.894;8.822;2023-05-07T04:03:27;3.95;;;3.10;;
20365;SDS011;10341;49.894;8.822;2023-05-07T04:08:49;3.70;;;3.05;;
20365;SDS011;10341;49.894;8.822;2023-05-07T04:14:09;4.45;;;3.35;;
20365;SDS011;10341;49.894;8.822;2023-05-07T04:19:29;3.65;;;3.22;;
20365;SDS011;10341;49.894;8.822;2023-05-07T04:24:49;3.70;;;2.90;;
20365;SDS011;10341;49.894;8.822;2023-05-07T04:30:08;3.65;;;3.08;;
20365;SDS011;10341;49.894;8.822;2023-05-07T04:35:31;4.25;;;3.10;;
20365;SDS011;10341;49.894;8.822;2023-05-07T04:40:51;4.25;;;3.30;;
20365;SDS011;10341;49.894;8.822;2023-05-07T04:46:14;4.65;;;3.20;;
20365;SDS011;10341;49.894;8.822;2023-05-07T04:51:35;4.90;;;3.38;;
20365;SDS011;10341;49.894;8.822;2023-05-07T05:02:15;4.22;;;3.38;;
20365;SDS011;10341;49.894;8.822;2023-05-07T05:07:35;4.55;;;3.30;;
20365;SDS011;10341;49.894;8.822;2023-05-07T05:12:54;3.80;;;3.50;;
20365;SDS011;10341;49.894;8.822;2023-05-07T05:18:15;6.18;;;3.65;;
20365;SDS011;10341;49.894;8.822;2023-05-07T05:23:35;4.57;;;3.50;;
20365;SDS011;10341;49.894;8.822;2023-05-07T05:28:54;3.67;;;3.10;;
20365;SDS011;10341;49.894;8.822;2023-05-07T05:34:16;3.97;;;3.20;;
20365;SDS011;10341;49.894;8.822;2023-05-07T05:39:38;3.55;;;2.92;;
20365;SDS011;10341;49.894;8.822;2023-05-07T05:44:59;3.78;;;3.22;;
20365;SDS011;10341;49.894;8.822;2023-05-07T05:50:21;3.55;;;3.13;;
20365;SDS011;10341;49.894;8.822;2023-05-07T05:55:41;3.83;;;2.65;;
20365;SDS011;10341;49.894;8.822;2023-05-07T06:01:01;4.30;;;2.80;;
20365;SDS011;10341;49.894;8.822;2023-05-07T06:06:22;3.53;;;2.78;;
20365;SDS011;10341;49.894;8.822;2023-05-07T06:11:41;4.72;;;2.58;;
20365;SDS011;10341;49.894;8.822;2023-05-07T06:17:01;3.83;;;2.90;;
20365;SDS011;10341;49.894;8.822;2023-05-07T06:22:20;2.75;;;2.38;;
20365;SDS011;10341;49.894;8.822;2023-05-07T06:27:40;2.92;;;2.35;;
20365;SDS011;10341;49.894;8.822;2023-05-07T06:33:01;3.50;;;2.85;;
20365;SDS011;10341;49.894;8.822;2023-05-07T06:38:20;3.72;;;2.63;;
20365;SDS011;10341;49.894;8.822;2023-05-07T06:43:41;2.53;;;2.33;;
20365;SDS011;10341;49.894;8.822;2023-05-07T06:49:24;3.90;;;2.80;;
20365;SDS011;10341;49.894;8.822;2023-05-07T06:54:43;3.03;;;2.40;;
20365;SDS011;10341;49.894;8.822;2023-05-07T07:00:07;4.18;;;2.28;;
20365;SDS011;10341;49.894;8.822;2023-05-07T07:05:35;4.53;;;2.38;;
20365;SDS011;10341;49.894;8.822;2023-05-07T07:10:56;2.67;;;2.47;;
20365;SDS011;10341;49.894;8.822;2023-05-07T07:16:16;3.92;;;2.33;;
20365;SDS011;10341;49.894;8.822;2023-05-07T07:21:35;2.42;;;2.15;;
20365;SDS011;10341;49.894;8.822;2023-05-07T07:26:54;2.97;;;2.33;;
20365;SDS011;10341;49.894;8.822;2023-05-07T07:32:15;2.75;;;2.45;;
20365;SDS011;10341;49.894;8.822;2023-05-07T07:37:35;2.88;;;2.58;;
20365;SDS011;10341;49.894;8.822;2023-05-07T07:48:15;3.42;;;2.33;;
20365;SDS011;10341;49.894;8.822;2023-05-07T07:53:35;2.80;;;2.53;;
20365;SDS011;10341;49.894;8.822;2023-05-07T07:58:54;3.20;;;2.65;;
20365;SDS011;10341;49.894;8.822;2023-05-07T08:04:14;3.25;;;2.80;;
20365;SDS011;10341;49.894;8.822;2023-05-07T08:09:35;3.33;;;2.78;;
20365;SDS011;10341;49.894;8.822;2023-05-07T08:14:56;3.05;;;2.60;;
20365;SDS011;10341;49.894;8.822;2023-05-07T08:20:16;2.92;;;2.60;;
20365;SDS011;10341;49.894;8.822;2023-05-07T08:25:35;3.63;;;2.72;;
20365;SDS011;10341;49.894;8.822;2023-05-07T08:30:57;2.97;;;2.70;;
20365;SDS011;10341;49.894;8.822;2023-05-07T08:36:20;4.25;;;3.28;;
20365;SDS011;10341;49.894;8.822;2023-05-07T08:41:39;3.20;;;2.80;;
20365;SDS011;10341;49.894;8.822;2023-05-07T08:46:59;3.40;;;2.85;;
20365;SDS011;10341;49.894;8.822;2023-05-07T08:52:21;4.35;;;2.80;;
20365;SDS011;10341;49.894;8.822;2023-05-07T08:57:41;2.88;;;2.47;;
20365;SDS011;10341;49.894;8.822;2023-05-07T09:03:02;2.95;;;2.40;;
20365;SDS011;10341;49.894;8.822;2023-05-07T09:08:24;2.63;;;2.42;;
20365;SDS011;10341;49.894;8.822;2023-05-07T09:13:45;2.97;;;2.67;;
20365;SDS011;10341;49.894;8.822;2023-05-07T09:19:04;3.35;;;2.80;;
20365;SDS011;10341;49.894;8.822;2023-05-07T09:24:24;4.35;;;2.70;;
20365;SDS011;10341;49.894;8.822;2023-05-07T09:29:43;3.77;;;2.90;;
20365;SDS011;10341;49.894;8.822;2023-05-07T09:35:03;3.45;;;3.15;;
20365;SDS011;10341;49.894;8.822;2023-05-07T09:40:25;3.03;;;2.70;;
20365;SDS011;10341;49.894;8.822;2023-05-07T09:45:47;4.07;;;2.97;;
20365;SDS011;10341;49.894;8.822;2023-05-07T09:51:21;3.58;;;2.85;;
20365;SDS011;10341;49.894;8.822;2023-05-07T09:56:46;3.10;;;2.80;;
20365;SDS011;10341;49.894;8.822;2023-05-07T10:02:08;4.53;;;2.78;;
20365;SDS011;10341;49.894;8.822;2023-05-07T10:07:37;3.50;;;2.70;;
20365;SDS011;10341;49.894;8.822;2023-05-07T10:13:01;3.03;;;2.80;;
20365;SDS011;10341;49.894;8.822;2023-05-07T10:18:26;3.83;;;2.90;;
20365;SDS011;10341;49.894;8.822;2023-05-07T10:23:59;3.10;;;2.80;;
20365;SDS011;10341;49.894;8.822;2023-05-07T10:40:46;3.40;;;2.90;;
20365;SDS011;10341;49.894;8.822;2023-05-07T10:46:09;2.80;;;2.60;;
20365;SDS011;10341;49.894;8.822;2023-05-07T10:51:32;3.50;;;2.90;;
20365;SDS011;10341;49.894;8.822;2023-05-07T10:57:26;5.37;;;2.57;;
20365;SDS011;10341;49.894;8.822;2023-05-07T11:08:19;2.70;;;2.30;;
20365;SDS011;10341;49.894;8.822;2023-05-07T11:13:47;2.97;;;2.67;;
20365;SDS011;10341;49.894;8.822;2023-05-07T11:25:18;2.30;;;2.10;;
20365;SDS011;10341;49.894;8.822;2023-05-07T11:30:47;2.50;;;2.30;;
20365;SDS011;10341;49.894;8.822;2023-05-07T11:36:10;2.53;;;2.30;;
20365;SDS011;10341;49.894;8.822;2023-05-07T11:41:36;3.22;;;2.42;;
20365;SDS011;10341;49.894;8.822;2023-05-07T11:46:56;2.40;;;2.13;;
20365;SDS011;10341;49.894;8.822;2023-05-07T11:52:16;2.67;;;2.10;;
20365;SDS011;10341;49.894;8.822;2023-05-07T11:57:36;2.80;;;2.30;;
20365;SDS011;10341;49.894;8.822;2023-05-07T12:02:56;2.47;;;2.10;;
20365;SDS011;10341;49.894;8.822;2023-05-07T12:08:16;2.30;;;2.10;;
20365;SDS011;10341;49.894;8.822;2023-05-07T12:13:36;3.35;;;2.17;;
20365;SDS011;10341;49.894;8.822;2023-05-07T12:18:56;2.80;;;2.30;;
20365;SDS011;10341;49.894;8.822;2023-05-07T12:24:17;2.88;;;2.00;;
20365;SDS011;10341;49.894;8.822;2023-05-07T12:29:36;3.33;;;2.00;;
20365;SDS011;10341;49.894;8.822;2023-05-07T12:34:58;2.17;;;1.98;;
20365;SDS011;10341;49.894;8.822;2023-05-07T12:40:18;5.05;;;1.83;;
20365;SDS011;10341;49.894;8.822;2023-05-07T12:45:37;3.35;;;1.70;;
20365;SDS011;10341;49.894;8.822;2023-05-07T12:51:00;2.35;;;1.80;;
20365;SDS011;10341;49.894;8.822;2023-05-07T12:56:20;1.65;;;1.52;;
20365;SDS011;10341;49.894;8.822;2023-05-07T13:01:40;3.15;;;1.70;;
20365;SDS011;10341;49.894;8.822;2023-05-07T13:07:03;2.58;;;1.80;;
20365;SDS011;10341;49.894;8.822;2023-05-07T13:12:22;2.60;;;1.60;;
20365;SDS011;10341;49.894;8.822;2023-05-07T13:17:42;2.45;;;1.60;;
20365;SDS011;10341;49.894;8.822;2023-05-07T13:23:01;1.85;;;1.70;;
20365;SDS011;10341;49.894;8.822;2023-05-07T13:28:23;1.65;;;1.52;;
20365;SDS011;10341;49.894;8.822;2023-05-07T13:33:43;2.05;;;1.73;;
20365;SDS011;10341;49.894;8.822;2023-05-07T13:39:03;3.67;;;1.58;;
20365;SDS011;10341;49.894;8.822;2023-05-07T13:44:22;2.88;;;1.75;;
20365;SDS011;10341;49.894;8.822;2023-05-07T13:49:42;1.75;;;1.60;;
20365;SDS011;10341;49.894;8.822;2023-05-07T13:55:01;1.95;;;1.80;;
20365;SDS011;10341;49.894;8.822;2023-05-07T14:00:21;3.22;;;1.83;;
20365;SDS011;10341;49.894;8.822;2023-05-07T14:05:41;1.88;;;1.77;;
20365;SDS011;10341;49.894;8.822;2023-05-07T14:11:00;1.73;;;1.60;;
20365;SDS011;10341;49.894;8.822;2023-05-07T14:16:20;1.67;;;1.58;;
20365;SDS011;10341;49.894;8.822;2023-05-07T14:26:59;1.97;;;1.80;;
20365;SDS011;10341;49.894;8.822;2023-05-07T14:32:21;2.30;;;2.10;;
20365;SDS011;10341;49.894;8.822;2023-05-07T14:37:41;2.10;;;1.80;;
20365;SDS011;10341;49.894;8.822;2023-05-07T14:43:01;2.40;;;1.88;;
20365;SDS011;10341;49.894;8.822;2023-05-07T14:53:40;2.13;;;1.80;;
20365;SDS011;10341;49.894;8.822;2023-05-07T14:59:02;2.55;;;2.00;;
20365;SDS011;10341;49.894;8.822;2023-05-07T15:04:21;2.88;;;1.90;;
20365;SDS011;10341;49.894;8.822;2023-05-07T15:09:41;2.10;;;1.88;;
20365;SDS011;10341;49.894;8.822;2023-05-07T15:15:01;2.20;;;2.00;;
20365;SDS011;10341;49.894;8.822;2023-05-07T15:20:21;2.00;;;1.90;;
20365;SDS011;10341;49.894;8.822;2023-05-07T15:25:40;3.97;;;2.03;;
20365;SDS011;10341;49.894;8.822;2023-05-07T15:31:00;2.50;;;1.90;;
20365;SDS011;10341;49.894;8.822;2023-05-07T15:36:20;2.28;;;2.05;;
20365;SDS011;10341;49.894;8.822;2023-05-07T15:41:39;3.70;;;2.00;;
20365;SDS011;10341;49.894;8.822;2023-05-07T15:46:59;2.95;;;2.03;;
20365;SDS011;10341;49.894;8.822;2023-05-07T15:52:18;1.98;;;1.80;;
20365;SDS011;10341;49.894;8.822;2023-05-07T15:57:39;2.75;;;1.98;;
20365;SDS011;10341;49.894;8.822;2023-05-07T16:02:58;2.70;;;2.03;;
20365;SDS011;10341;49.894;8.822;2023-05-07T16:08:18;3.53;;;2.05;;
20365;SDS011;10341;49.894;8.822;2023-05-07T16:13:38;2.63;;;2.00;;
20365;SDS011;10341;49.894;8.822;2023-05-07T16:18:57;1.90;;;1.70;;
20365;SDS011;10341;49.894;8.822;2023-05-07T16:24:17;4.32;;;3.30;;
20365;SDS011;10341;49.894;8.822;2023-05-07T16:29:36;4.40;;;3.17;;
20365;SDS011;10341;49.894;8.822;2023-05-07T16:34:55;5.65;;;3.00;;
20365;SDS011;10341;49.894;8.822;2023-05-07T16:40:15;3.85;;;2.78;;
20365;SDS011;10341;49.894;8.822;2023-05-07T16:45:35;4.57;;;2.80;;
20365;SDS011;10341;49.894;8.822;2023-05-07T16:50:54;4.10;;;2.47;;
20365;SDS011;10341;49.894;8.822;2023-05-07T16:56:15;3.30;;;2.70;;
20365;SDS011;10341;49.894;8.822;2023-05-07T17:01:34;3.77;;;2.63;;
20365;SDS011;10341;49.894;8.822;2023-05-07T17:06:53;4.95;;;3.15;;
20365;SDS011;10341;49.894;8.822;2023-05-07T17:12:15;3.72;;;2.45;;
20365;SDS011;10341;49.894;8.822;2023-05-07T17:17:34;4.03;;;2.70;;
20365;SDS011;10341;49.894;8.822;2023-05-07T17:22:53;3.42;;;2.72;;
20365;SDS011;10341;49.894;8.822;2023-05-07T17:28:13;3.13;;;2.40;;
20365;SDS011;10341;49.894;8.822;2023-05-07T17:33:32;2.72;;;2.28;;
20365;SDS011;10341;49.894;8.822;2023-05-07T17:38:52;2.97;;;1.92;;
20365;SDS011;10341;49.894;8.822;2023-05-07T17:44:11;2.28;;;1.90;;
20365;SDS011;10341;49.894;8.822;2023-05-07T17:49:31;3.25;;;2.05;;
20365;SDS011;10341;49.894;8.822;2023-05-07T17:54:51;2.40;;;1.95;;
20365;SDS011;10341;49.894;8.822;2023-05-07T18:00:10;3.90;;;2.08;;
20365;SDS011;10341;49.894;8.822;2023-05-07T18:05:30;2.20;;;2.00;;
20365;SDS011;10341;49.894;8.822;2023-05-07T18:10:49;2.70;;;1.90;;
20365;SDS011;10341;49.894;8.822;2023-05-07T18:16:08;2.00;;;1.83;;
20365;SDS011;10341;49.894;8.822;2023-05-07T18:21:28;3.92;;;1.92;;
20365;SDS011;10341;49.894;8.822;2023-05-07T18:26:47;1.52;;;1.40;;
20365;SDS011;10341;49.894;8.822;2023-05-07T18:32:06;2.30;;;1.97;;
20365;SDS011;10341;49.894;8.822;2023-05-07T18:37:26;2.05;;;1.85;;
20365;SDS011;10341;49.894;8.822;2023-05-07T18:42:46;2.33;;;1.80;;
20365;SDS011;10341;49.894;8.822;2023-05-07T18:48:05;2.75;;;2.40;;
20365;SDS011;10341;49.894;8.822;2023-05-07T18:58:44;3.85;;;2.90;;
20365;SDS011;10341;49.894;8.822;2023-05-07T19:04:03;4.07;;;2.75;;
20365;SDS011;10341;49.894;8.822;2023-05-07T19:09:23;3.50;;;2.70;;
20365;SDS011;10341;49.894;8.822;2023-05-07T19:14:42;4.65;;;3.50;;
20365;SDS011;10341;49.894;8.822;2023-05-07T19:20:04;4.57;;;3.42;;
20365;SDS011;10341;49.894;8.822;2023-05-07T19:25:24;5.32;;;3.25;;
20365;SDS011;10341;49.894;8.822;2023-05-07T19:30:43;4.10;;;3.20;;
20365;SDS011;10341;49.894;8.822;2023-05-07T19:36:03;4.00;;;3.38;;
20365;SDS011;10341;49.894;8.822;2023-05-07T19:41:22;6.22;;;3.50;;
20365;SDS011;10341;49.894;8.822;2023-05-07T19:46:41;5.28;;;4.30;;
20365;SDS011;10341;49.894;8.822;2023-05-07T19:52:03;4.13;;;3.20;;
20365;SDS011;10341;49.894;8.822;2023-05-07T19:57:22;4.85;;;3.25;;
20365;SDS011;10341;49.894;8.822;2023-05-07T20:02:42;5.90;;;4.07;;
20365;SDS011;10341;49.894;8.822;2023-05-07T20:08:01;5.85;;;3.72;;
20365;SDS011;10341;49.894;8.822;2023-05-07T20:13:21;4.22;;;3.70;;
20365;SDS011;10341;49.894;8.822;2023-05-07T20:18:41;4.95;;;4.30;;
20365;SDS011;10341;49.894;8.822;2023-05-07T20:24:00;6.13;;;4.22;;
20365;SDS011;10341;49.894;8.822;2023-05-07T20:29:21;6.28;;;4.30;;
20365;SDS011;10341;49.894;8.822;2023-05-07T20:34:40;5.65;;;4.70;;
20365;SDS011;10341;49.894;8.822;2023-05-07T20:40:00;6.00;;;4.80;;
20365;SDS011;10341;49.894;8.822;2023-05-07T20:45:21;6.60;;;4.57;;
20365;SDS011;10341;49.894;8.822;2023-05-07T20:50:40;7.90;;;4.75;;
20365;SDS011;10341;49.894;8.822;2023-05-07T20:55:59;7.30;;;5.55;;
20365;SDS011;10341;49.894;8.822;2023-05-07T21:01:18;8.13;;;5.43;;
20365;SDS011;10341;49.894;8.822;2023-05-07T21:06:38;6.60;;;5.13;;
20365;SDS011;10341;49.894;8.822;2023-05-07T21:11:58;6.18;;;4.97;;
20365;SDS011;10341;49.894;8.822;2023-05-07T21:17:17;8.20;;;5.15;;
20365;SDS011;10341;49.894;8.822;2023-05-07T21:22:36;9.00;;;5.40;;
20365;SDS011;10341;49.894;8.822;2023-05-07T21:27:55;7.35;;;5.55;;
20365;SDS011;10341;49.894;8.822;2023-05-07T21:33:14;7.15;;;5.57;;
20365;SDS011;10341;49.894;8.822;2023-05-07T21:38:33;7.07;;;5.40;;
20365;SDS011;10341;49.894;8.822;2023-05-07T21:43:54;7.53;;;6.00;;
20365;SDS011;10341;49.894;8.822;2023-05-07T21:49:13;7.57;;;5.93;;
20365;SDS011;10341;49.894;8.822;2023-05-07T21:54:33;9.02;;;6.63;;
20365;SDS011;10341;49.894;8.822;2023-05-07T21:59:52;8.57;;;5.80;;
20365;SDS011;10341;49.894;8.822;2023-05-07T22:05:11;13.50;;;6.65;;
20365;SDS011;10341;49.894;8.822;2023-05-07T22:10:30;8.57;;;6.20;;
20365;SDS011;10341;49.894;8.822;2023-05-07T22:15:49;12.13;;;7.05;;
20365;SDS011;10341;49.894;8.822;2023-05-07T22:21:08;10.57;;;8.30;;
20365;SDS011;10341;49.894;8.822;2023-05-07T22:26:28;12.30;;;9.18;;
20365;SDS011;10341;49.894;8.822;2023-05-07T22:31:47;9.63;;;7.43;;
20365;SDS011;10341;49.894;8.822;2023-05-07T22:42:26;9.50;;;7.07;;
20365;SDS011;10341;49.894;8.822;2023-05-07T22:47:45;12.35;;;8.35;;
20365;SDS011;10341;49.894;8.822;2023-05-07T22:53:04;12.65;;;9.23;;
20365;SDS011;10341;49.894;8.822;2023-05-07T22:58:24;13.07;;;9.10;;
20365;SDS011;10341;49.894;8.822;2023-05-07T23:03:44;9.65;;;7.80;;
20365;SDS011;10341;49.894;8.822;2023-05-07T23:09:03;9.00;;;7.28;;
20365;SDS011;10341;49.894;8.822;2023-05-07T23:14:22;9.13;;;7.32;;
20365;SDS011;10341;49.894;8.822;2023-05-07T23:19:41;9.68;;;7.32;;
20365;SDS011;10341;49.894;8.822;2023-05-07T23:25:01;9.77;;;7.90;;
20365;SDS011;10341;49.894;8.822;2023-05-07T23:35:40;8.90;;;6.88;;
20365;SDS011;10341;49.894;8.822;2023-05-07T23:40:59;7.28;;;5.85;;
20365;SDS011;10341;49.894;8.822;2023-05-07T23:46:18;9.87;;;7.40;;
20365;SDS011;10341;49.894;8.822;2023-05-07T23:51:37;9.40;;;7.30;;
20365;SDS011;10341;49.894;8.822;2023-05-07T23:56:57;8.50;;;6.72;;
